Flight Track Log - Related Links

Times and Time Zones

All times are in EDT time to prevent confusion due to time zone crossing. See the AFL1404 flight status page for this flight to view local times or setup timezone preferences in your user account.

Time Position Orientation Groundspeed Altitude Reporting Facility
EDT Latitude Longitude Course Direction KTS MPH feet Rate Location/Type
Sat 09:05:00 AM 56.0464 38.0065 77° East  Level Estimated
Sat 09:06:00 AM 56.0698 38.1946 77° East  Level Estimated
Sat 09:07:00 AM 56.0929 38.3829 78° East  Level Estimated
Sat 09:08:00 AM 56.1158 38.5714 78° East  Level Estimated
Sat 09:09:00 AM 56.1383 38.7602 78° East  Level Estimated
Sat 09:10:00 AM 56.1606 38.9492 78° East  Level Estimated
Sat 09:11:00 AM 56.1845 39.1555 78° East  Level Estimated
Sat 09:12:00 AM 56.2081 39.3622 78° East  Level Estimated
Sat 09:13:00 AM 56.2314 39.5691 78° East  Level Estimated
Sat 09:14:00 AM 56.2543 39.7763 79° East  Level Estimated
Sat 09:15:00 AM 56.2769 39.9837 79° East  Level Estimated
Sat 09:16:00 AM 56.2991 40.1913 79° East  Level Estimated
Sat 09:17:00 AM 56.3210 40.3992 79° East  Level Estimated
Sat 09:18:00 AM 56.3425 40.6073 79° East  Level Estimated
Sat 09:19:00 AM 56.3637 40.8157 80° East  Level Estimated
Sat 09:20:00 AM 56.3845 41.0243 80° East  Level Estimated
Sat 09:21:00 AM 56.4050 41.2331 80° East  Level Estimated
Sat 09:22:00 AM 56.4251 41.4421 80° East  Level Estimated
Sat 09:23:00 AM 56.4449 41.6513 80° East  Level Estimated
Sat 09:24:00 AM 56.4643 41.8608 80° East  Level Estimated
Sat 09:25:00 AM 56.4834 42.0705 81° East  Level Estimated
Sat 09:26:00 AM 56.5005 42.2629 81° East  Level Estimated
Sat 09:27:00 AM 56.5174 42.4554 81° East  Level Estimated
Sat 09:28:00 AM 56.5340 42.6482 81° East  Level Estimated
Sat 09:29:00 AM 56.5503 42.8411 81° East  Level Estimated
Sat 09:30:00 AM 56.5662 43.0341 81° East  Level Estimated
Sat 09:31:00 AM 56.5819 43.2274 82° East  Level Estimated
Sat 09:32:00 AM 56.5973 43.4208 82° East  Level Estimated
Sat 09:33:00 AM 56.6124 43.6143 82° East  Level Estimated
Sat 09:34:00 AM 56.6272 43.8080 82° East  Level Estimated
Sat 09:35:00 AM 56.6416 44.0019 82° East  Level Estimated
Sat 09:36:00 AM 56.6558 44.1958 82° East  Level Estimated
Sat 09:37:00 AM 56.6697 44.3900 83° East  Level Estimated
Sat 09:38:00 AM 56.6832 44.5843 83° East  Level Estimated
Sat 09:39:00 AM 56.6965 44.7787 83° East  Level Estimated
Sat 09:40:00 AM 56.7095 44.9732 83° East  Level Estimated
Sat 09:41:00 AM 56.7221 45.1679 83° East  Level Estimated
Sat 09:42:00 AM 56.7345 45.3627 83° East  Level Estimated
Sat 09:43:00 AM 56.7466 45.5577 83° East  Level Estimated
Sat 09:44:00 AM 56.7583 45.7527 84° East  Level Estimated
Sat 09:45:00 AM 56.7697 45.9479 84° East  Level Estimated
Sat 09:46:00 AM 56.7809 46.1432 84° East  Level Estimated
Sat 09:47:00 AM 56.7917 46.3386 84° East  Level Estimated
Sat 09:48:00 AM 56.8022 46.5342 84° East  Level Estimated
Sat 09:49:00 AM 56.8125 46.7298 84° East  Level Estimated
Sat 09:50:00 AM 56.8224 46.9255 85° East  Level Estimated
Sat 09:51:00 AM 56.8320 47.1214 85° East  Level Estimated
Sat 09:52:00 AM 56.8413 47.3173 85° East  Level Estimated
Sat 09:53:00 AM 56.8503 47.5134 85° East  Level Estimated
Sat 09:54:00 AM 56.8590 47.7095 85° East  Level Estimated
Sat 09:55:00 AM 56.8674 47.9057 85° East  Level Estimated
Sat 09:56:00 AM 56.8754 48.1020 86° East  Level Estimated
Sat 09:57:00 AM 56.8832 48.2984 86° East  Level Estimated
Sat 09:58:00 AM 56.8907 48.4949 86° East  Level Estimated
Sat 09:59:00 AM 56.8978 48.6914 86° East  Level Estimated
Sat 10:00:00 AM 56.9047 48.8881 86° East  Level Estimated
Sat 10:01:00 AM 56.9112 49.0848 86° East  Level Estimated
Sat 10:02:00 AM 56.9174 49.2815 87° East  Level Estimated
Sat 10:03:00 AM 56.9233 49.4783 87° East  Level Estimated
Sat 10:04:00 AM 56.9289 49.6752 87° East  Level Estimated
Sat 10:05:00 AM 56.9342 49.8722 87° East  Level Estimated
Sat 10:06:00 AM 56.9392 50.0691 87° East  Level Estimated
Sat 10:07:00 AM 56.9439 50.2662 87° East  Level Estimated
Sat 10:08:00 AM 56.9482 50.4633 88° East  Level Estimated
Sat 10:09:00 AM 56.9523 50.6604 88° East  Level Estimated
Sat 10:10:00 AM 56.9561 50.8576 88° East  Level Estimated
Sat 10:11:00 AM 56.9595 51.0548 88° East  Level Estimated
Sat 10:12:00 AM 56.9626 51.2521 88° East  Level Estimated
Sat 10:13:00 AM 56.9654 51.4494 88° East  Level Estimated
Sat 10:14:00 AM 56.9679 51.6467 89° East  Level Estimated
Sat 10:15:00 AM 56.9701 51.8440 89° East  Level Estimated
Sat 10:16:00 AM 56.9720 52.0414 89° East  Level Estimated
Sat 10:17:00 AM 56.9736 52.2388 89° East  Level Estimated
Sat 10:18:00 AM 56.9748 52.4361 89° East  Level Estimated
Sat 10:19:00 AM 56.9758 52.6335 89° East  Level Estimated
Sat 10:20:00 AM 56.9764 52.8310 90° East  Level Estimated
Sat 10:21:00 AM 56.9768 53.0284 90° East  Level Estimated
Sat 10:22:00 AM 56.9768 53.2258 90° East  Level Estimated
Sat 10:23:00 AM 56.9765 53.4232 90° East  Level Estimated
Sat 10:24:00 AM 56.9759 53.6206 90° East  Level Estimated
Sat 10:25:00 AM 56.9750 53.8180 90° East  Level Estimated
Sat 10:26:00 AM 56.9738 54.0154 91° East  Level Estimated
Sat 10:27:00 AM 56.9722 54.2128 91° East  Level Estimated
Sat 10:28:00 AM 56.9704 54.4102 91° East  Level Estimated
Sat 10:29:00 AM 56.9682 54.6075 91° East  Level Estimated
Sat 10:30:00 AM 56.9658 54.8048 91° East  Level Estimated
Sat 10:31:00 AM 56.9630 55.0021 91° East  Level Estimated
Sat 10:32:00 AM 56.9599 55.1994 92° East  Level Estimated
Sat 10:33:00 AM 56.9565 55.3966 92° East  Level Estimated
Sat 10:34:00 AM 56.9528 55.5938 92° East  Level Estimated
Sat 10:35:00 AM 56.9488 55.7909 92° East  Level Estimated
Sat 10:36:00 AM 56.9444 55.9880 92° East  Level Estimated
Sat 10:37:00 AM 56.9398 56.1851 92° East  Level Estimated
Sat 10:38:00 AM 56.9348 56.3821 93° East  Level Estimated
Sat 10:39:00 AM 56.9296 56.5790 93° East  Level Estimated
Sat 10:40:00 AM 56.9240 56.7759 93° East  Level Estimated
Sat 10:41:00 AM 56.9181 56.9727 93° East  Level Estimated
Sat 10:42:00 AM 56.9119 57.1695 93° East  Level Estimated
Sat 10:43:00 AM 56.9055 57.3662 93° East  Level Estimated
Sat 10:44:00 AM 56.8987 57.5628 94° East  Level Estimated
Sat 10:45:00 AM 56.8915 57.7594 94° East  Level Estimated
Sat 10:46:00 AM 56.8841 57.9559 94° East  Level Estimated
Sat 10:47:00 AM 56.8764 58.1523 94° East  Level Estimated
Sat 10:48:00 AM 56.8684 58.3486 94° East  Level Estimated
Sat 10:49:00 AM 56.8600 58.5448 94° East  Level Estimated
Sat 10:50:00 AM 56.8514 58.7410 95° East  Level Estimated
Sat 10:51:00 AM 56.8424 58.9370 95° East  Level Estimated
Sat 10:52:00 AM 56.8331 59.1330 95° East  Level Estimated
Sat 10:53:00 AM 56.8236 59.3288 95° East  Level Estimated
Sat 10:54:00 AM 56.8137 59.5246 95° East  Level Estimated
Sat 10:55:00 AM 56.8035 59.7202 95° East  Level Estimated
Sat 10:56:00 AM 56.7930 59.9158 96° East  Level Estimated
Sat 10:57:00 AM 56.7822 60.1112 96° East  Level Estimated
Sat 10:58:00 AM 56.7711 60.3065 96° East  Level Estimated
Sat 10:59:00 AM 56.7597 60.5017 96° East  Level Estimated
Sat 11:00:00 AM 56.7480 60.6968 96° East  Level Estimated
Sat 11:01:00 AM 56.7414 60.8036 96° East  Level Estimated
Sat 11:02:00 AM 56.7414 60.8036 North  Level Estimated
Sat 11:03:00 AM 56.7414 60.8036 North  Level Estimated
Sat 11:04:00 AM 56.7414 60.8036 North  Level Estimated
Sat 11:05:00 AM 56.7414 60.8036 North  Level Estimated

Login

Don't have an account? Register now (free) for customized features, flight alerts, and more!